createdAt,value
2022-10-23T08:22:45.181Z,9.60
2022-10-23T08:25:17.743Z,9.07
2022-10-23T08:27:47.195Z,10.93
2022-10-23T08:30:15.488Z,10.00
2022-10-23T08:32:43.873Z,8.18
2022-10-23T08:35:13.787Z,9.10
2022-10-23T08:37:41.306Z,11.97
2022-10-23T08:40:18.088Z,8.98
2022-10-23T08:43:10.209Z,9.75
2022-10-23T08:45:48.438Z,10.70
2022-10-23T08:48:45.606Z,7.97
2022-10-23T08:51:41.119Z,13.00
2022-10-23T08:54:14.357Z,10.47
2022-10-23T08:56:44.345Z,13.23
2022-10-23T08:59:34.276Z,9.75
2022-10-23T09:02:04.113Z,10.68
2022-10-23T09:04:32.305Z,9.75
2022-10-23T09:07:03.785Z,10.13
2022-10-23T09:09:43.117Z,10.25
2022-10-23T09:12:12.854Z,9.52
2022-10-23T09:15:02.521Z,14.00
2022-10-23T09:17:32.173Z,9.63
2022-10-23T09:20:25.098Z,10.60
2022-10-23T09:22:59.738Z,10.20
2022-10-23T09:25:31.261Z,11.80
2022-10-23T09:28:01.523Z,13.38
2022-10-23T09:30:32.672Z,12.27
2022-10-23T09:33:12.403Z,10.75
2022-10-23T09:35:55.608Z,8.05
2022-10-23T09:38:46.266Z,8.43
2022-10-23T09:41:19.915Z,8.88
2022-10-23T09:43:47.681Z,8.23
2022-10-23T09:46:20.143Z,9.85
2022-10-23T09:48:59.881Z,11.40
2022-10-23T09:51:29.598Z,13.10
2022-10-23T09:53:59.073Z,10.88
2022-10-23T09:56:40.241Z,9.60
2022-10-23T09:59:10.798Z,11.27
2022-10-23T10:01:47.530Z,11.07
2022-10-23T10:04:42.286Z,10.10
2022-10-23T10:07:24.538Z,10.40
2022-10-23T10:09:56.922Z,13.05
2022-10-23T10:12:37.483Z,12.63
2022-10-23T10:15:14.906Z,15.73
2022-10-23T10:18:06.602Z,11.10
2022-10-23T10:20:42.634Z,14.82
2022-10-23T10:23:33.074Z,9.68
2022-10-23T10:26:23.098Z,16.00
2022-10-23T10:29:15.749Z,17.00
2022-10-23T10:32:05.918Z,11.52
2022-10-23T10:34:47.411Z,15.07
2022-10-23T10:37:53.592Z,19.70
2022-10-23T10:40:33.409Z,13.02
2022-10-23T10:43:28.442Z,10.75
2022-10-23T10:46:22.824Z,11.95
2022-10-23T10:49:00.858Z,12.07
2022-10-23T10:51:38.614Z,18.65
2022-10-23T10:54:21.825Z,15.00
2022-10-23T10:56:49.451Z,16.77
2022-10-23T10:59:28.860Z,10.82
2022-10-23T11:02:15.683Z,11.52
2022-10-23T11:04:52.842Z,13.10
2022-10-23T11:07:25.329Z,13.68
2022-10-23T11:09:53.364Z,12.30
2022-10-23T11:12:24.989Z,14.93
2022-10-23T11:14:52.860Z,12.02
2022-10-23T11:17:25.062Z,14.55
2022-10-23T11:20:15.860Z,11.55
2022-10-23T11:22:47.741Z,17.90
2022-10-23T11:25:49.314Z,12.95
2022-10-23T11:28:43.112Z,16.73
2022-10-23T11:31:34.898Z,13.75
2022-10-23T11:34:21.097Z,14.02
2022-10-23T11:36:58.426Z,15.60
2022-10-23T11:39:29.449Z,12.68
2022-10-23T11:42:31.655Z,12.32
2022-10-23T11:44:59.002Z,11.68
2022-10-23T11:47:40.563Z,16.48
2022-10-23T11:50:08.028Z,10.50
2022-10-23T11:53:12.551Z,13.02
2022-10-23T11:56:16.217Z,15.45
2022-10-23T11:58:46.879Z,13.25
2022-10-23T12:01:26.513Z,20.45
2022-10-23T12:04:12.701Z,12.98
2022-10-23T12:07:23.820Z,15.05
2022-10-23T12:09:57.812Z,12.95
2022-10-23T12:12:34.246Z,15.60
2022-10-23T12:15:18.804Z,13.75
2022-10-23T12:17:48.262Z,14.35
2022-10-23T12:20:25.753Z,17.38
2022-10-23T12:23:20.905Z,16.30
2022-10-23T12:26:18.860Z,14.45
2022-10-23T12:28:49.138Z,14.32
2022-10-23T12:31:25.160Z,13.60
2022-10-23T12:34:33.230Z,14.95
2022-10-23T12:37:38.519Z,17.13
2022-10-23T12:40:09.035Z,20.75
2022-10-23T12:42:37.679Z,13.40
2022-10-23T12:45:24.911Z,15.18
2022-10-23T12:47:52.719Z,18.73
2022-10-23T12:50:29.262Z,11.95
2022-10-23T12:53:00.982Z,15.75
2022-10-23T12:55:49.535Z,18.30
2022-10-23T12:58:26.154Z,15.90
2022-10-23T13:00:59.365Z,18.23
2022-10-23T13:03:28.984Z,15.98
2022-10-23T13:05:58.785Z,18.52
2022-10-23T13:08:33.614Z,21.30
2022-10-23T13:11:20.717Z,15.02
2022-10-23T13:13:50.501Z,18.60
2022-10-23T13:16:21.190Z,17.30
2022-10-23T13:18:49.226Z,15.27
2022-10-23T13:21:21.940Z,18.67
2022-10-23T13:23:50.476Z,14.32
2022-10-23T13:26:35.879Z,15.70
2022-10-23T13:29:08.700Z,14.05
2022-10-23T13:31:36.981Z,15.40
2022-10-23T13:34:14.865Z,13.70
2022-10-23T13:36:53.568Z,16.15
2022-10-23T13:39:33.635Z,18.25
2022-10-23T13:42:12.657Z,16.70
2022-10-23T13:44:41.117Z,15.75
2022-10-23T13:47:17.862Z,14.48
2022-10-23T13:49:45.262Z,15.25
2022-10-23T13:52:15.306Z,19.52
2022-10-23T13:54:43.690Z,18.67
2022-10-23T13:57:15.558Z,19.25
2022-10-23T13:59:45.298Z,17.52
2022-10-23T14:02:19.389Z,15.77
2022-10-23T14:04:48.633Z,20.67
2022-10-23T14:07:15.983Z,16.60
2022-10-23T14:09:43.860Z,19.17
2022-10-23T14:12:12.359Z,20.92
2022-10-23T14:14:39.613Z,11.48
2022-10-23T14:17:06.941Z,21.17
2022-10-23T14:19:34.695Z,18.20
2022-10-23T14:22:01.985Z,13.82
2022-10-23T14:24:29.299Z,18.15
2022-10-23T14:26:57.600Z,13.93
2022-10-23T14:29:25.215Z,14.85
2022-10-23T14:31:52.754Z,17.45
2022-10-23T14:34:20.457Z,16.95
2022-10-23T14:37:03.878Z,13.60
2022-10-23T14:39:35.183Z,16.95
2022-10-23T14:42:02.438Z,16.77
2022-10-23T14:44:29.810Z,17.08
2022-10-23T14:46:57.167Z,16.50
2022-10-23T14:49:24.555Z,16.70
2022-10-23T14:51:51.957Z,15.05
2022-10-23T14:54:19.343Z,17.25
2022-10-23T14:56:46.711Z,13.00
2022-10-23T14:59:15.103Z,18.23
2022-10-23T15:01:47.219Z,16.15
2022-10-23T15:04:16.829Z,19.40
2022-10-23T15:06:46.275Z,20.35
2022-10-23T15:09:14.567Z,17.95
2022-10-23T15:11:42.385Z,20.10
2022-10-23T15:14:09.855Z,21.10
2022-10-23T15:16:43.167Z,17.92
2022-10-23T15:19:15.212Z,13.80
2022-10-23T15:21:46.962Z,16.90
2022-10-23T15:24:15.847Z,15.63
2022-10-23T15:26:44.672Z,15.65
2022-10-23T15:29:12.659Z,15.40
2022-10-23T15:31:42.292Z,22.83
2022-10-23T15:34:16.543Z,21.98
2022-10-23T15:36:46.732Z,17.10
2022-10-23T15:39:17.105Z,21.65
2022-10-23T15:41:44.995Z,16.48
2022-10-23T15:44:16.346Z,13.57
2022-10-23T15:46:44.078Z,13.48
2022-10-23T15:49:14.030Z,16.13
2022-10-23T15:51:41.791Z,19.98
2022-10-23T15:54:16.404Z,18.52
2022-10-23T15:56:52.033Z,19.40
2022-10-23T15:59:22.157Z,19.55
2022-10-23T16:01:50.952Z,15.13
2022-10-23T16:14:14.113Z,15.88
2022-10-23T16:16:42.055Z,18.17
2022-10-23T16:19:13.239Z,19.05
2022-10-23T16:21:41.683Z,16.17
2022-10-23T16:24:10.250Z,17.65
2022-10-23T16:26:38.454Z,23.45
2022-10-23T16:29:08.263Z,23.17
2022-10-23T16:31:37.202Z,25.50
2022-10-23T16:34:06.083Z,23.23
2022-10-23T16:36:34.386Z,23.23
2022-10-23T16:39:24.903Z,23.85
2022-10-23T16:42:10.690Z,22.70
2022-10-23T16:45:04.483Z,24.38
2022-10-23T16:47:32.095Z,21.35
2022-10-23T16:49:59.967Z,22.88
2022-10-23T16:52:28.299Z,18.40
2022-10-23T16:54:55.926Z,21.08
2022-10-23T16:57:24.085Z,20.85
2022-10-23T16:59:51.403Z,26.70
2022-10-23T17:02:20.321Z,30.90
2022-10-23T17:04:50.014Z,50.90
2022-10-23T17:24:47.525Z,44.75
2022-10-23T17:27:17.865Z,40.55
2022-10-23T17:34:41.185Z,28.20
2022-10-23T17:37:10.117Z,27.67
2022-10-23T17:39:37.368Z,31.20
2022-10-23T17:42:04.620Z,28.92
2022-10-23T17:44:32.593Z,33.25
2022-10-23T17:46:59.867Z,30.48
2022-10-23T17:49:27.196Z,26.27
2022-10-23T17:51:57.066Z,31.58
2022-10-23T17:54:26.444Z,27.42
2022-10-23T17:56:54.223Z,21.42
2022-10-23T17:59:21.456Z,27.05
2022-10-23T18:01:49.449Z,25.70
2022-10-23T18:04:19.132Z,30.48
2022-10-23T18:14:17.757Z,25.02
2022-10-23T18:16:45.894Z,30.25
2022-10-23T18:19:15.252Z,26.88
2022-10-23T18:21:47.744Z,24.42
2022-10-23T18:24:15.263Z,25.77
2022-10-23T18:26:42.637Z,24.10
2022-10-23T18:29:11.379Z,25.38
2022-10-23T18:31:39.556Z,26.85
2022-10-23T18:34:24.719Z,24.60
2022-10-23T18:36:53.675Z,23.23
2022-10-23T18:39:23.646Z,23.35
2022-10-23T18:41:54.009Z,24.35
2022-10-23T18:44:22.876Z,27.27
2022-10-23T19:39:18.300Z,22.23
2022-10-23T19:41:47.911Z,24.83
2022-10-23T19:44:16.445Z,24.98
2022-10-23T19:46:44.770Z,23.13
